sensor_id;sensor_type;location;lat;lon;timestamp;temperature;humidity
24382;DHT22;12502;50.678;7.172;2022-07-21T00:03:17;20.50;99.90
24382;DHT22;12502;50.678;7.172;2022-07-21T00:08:19;20.20;99.90
24382;DHT22;12502;50.678;7.172;2022-07-21T00:13:21;20.10;99.90
24382;DHT22;12502;50.678;7.172;2022-07-21T00:18:23;20.10;99.90
24382;DHT22;12502;50.678;7.172;2022-07-21T00:23:25;20.00;99.90
24382;DHT22;12502;50.678;7.172;2022-07-21T00:28:27;19.90;99.90
24382;DHT22;12502;50.678;7.172;2022-07-21T00:33:29;19.90;99.90
24382;DHT22;12502;50.678;7.172;2022-07-21T00:38:30;19.90;99.90
24382;DHT22;12502;50.678;7.172;2022-07-21T00:43:33;19.80;99.90
24382;DHT22;12502;50.678;7.172;2022-07-21T00:48:35;19.80;99.90
24382;DHT22;12502;50.678;7.172;2022-07-21T00:53:37;19.80;99.90
24382;DHT22;12502;50.678;7.172;2022-07-21T00:58:40;19.80;99.90
24382;DHT22;12502;50.678;7.172;2022-07-21T01:03:42;19.70;99.90
24382;DHT22;12502;50.678;7.172;2022-07-21T01:08:44;19.70;99.90
24382;DHT22;12502;50.678;7.172;2022-07-21T01:13:46;19.70;99.90
24382;DHT22;12502;50.678;7.172;2022-07-21T01:18:48;19.70;99.90
24382;DHT22;12502;50.678;7.172;2022-07-21T01:23:50;19.60;99.90
24382;DHT22;12502;50.678;7.172;2022-07-21T01:28:52;19.60;99.90
24382;DHT22;12502;50.678;7.172;2022-07-21T01:33:55;19.60;99.90
24382;DHT22;12502;50.678;7.172;2022-07-21T01:38:57;19.60;99.90
24382;DHT22;12502;50.678;7.172;2022-07-21T01:44:18;19.60;99.90
24382;DHT22;12502;50.678;7.172;2022-07-21T01:49:20;19.60;99.90
24382;DHT22;12502;50.678;7.172;2022-07-21T01:54:22;19.50;99.90
24382;DHT22;12502;50.678;7.172;2022-07-21T01:59:25;19.50;99.90
24382;DHT22;12502;50.678;7.172;2022-07-21T02:04:27;19.50;99.90
24382;DHT22;12502;50.678;7.172;2022-07-21T02:09:29;19.50;99.90
24382;DHT22;12502;50.678;7.172;2022-07-21T02:14:31;19.40;99.90
24382;DHT22;12502;50.678;7.172;2022-07-21T02:19:33;19.40;99.90
24382;DHT22;12502;50.678;7.172;2022-07-21T02:24:34;19.40;99.90
24382;DHT22;12502;50.678;7.172;2022-07-21T02:29:36;19.40;99.90
24382;DHT22;12502;50.678;7.172;2022-07-21T02:34:38;19.30;99.90
24382;DHT22;12502;50.678;7.172;2022-07-21T02:39:40;19.30;99.90
24382;DHT22;12502;50.678;7.172;2022-07-21T02:44:42;19.30;99.90
24382;DHT22;12502;50.678;7.172;2022-07-21T02:49:43;19.20;99.90
24382;DHT22;12502;50.678;7.172;2022-07-21T02:54:46;19.20;99.90
24382;DHT22;12502;50.678;7.172;2022-07-21T02:59:48;19.20;99.90
24382;DHT22;12502;50.678;7.172;2022-07-21T03:04:49;19.20;99.90
24382;DHT22;12502;50.678;7.172;2022-07-21T03:09:51;19.20;99.90
24382;DHT22;12502;50.678;7.172;2022-07-21T03:14:53;19.30;99.90
24382;DHT22;12502;50.678;7.172;2022-07-21T03:19:55;19.30;99.90
24382;DHT22;12502;50.678;7.172;2022-07-21T03:24:57;19.20;99.90
24382;DHT22;12502;50.678;7.172;2022-07-21T03:29:58;19.20;99.90
24382;DHT22;12502;50.678;7.172;2022-07-21T03:35:00;19.20;99.90
24382;DHT22;12502;50.678;7.172;2022-07-21T03:40:03;19.10;99.90
24382;DHT22;12502;50.678;7.172;2022-07-21T03:45:05;19.10;99.90
24382;DHT22;12502;50.678;7.172;2022-07-21T03:50:08;19.10;99.90
24382;DHT22;12502;50.678;7.172;2022-07-21T03:55:10;19.10;99.90
24382;DHT22;12502;50.678;7.172;2022-07-21T04:05:26;19.10;99.90
24382;DHT22;12502;50.678;7.172;2022-07-21T04:10:30;19.00;99.90
24382;DHT22;12502;50.678;7.172;2022-07-21T04:15:33;19.10;99.90
24382;DHT22;12502;50.678;7.172;2022-07-21T04:20:35;19.10;99.90
24382;DHT22;12502;50.678;7.172;2022-07-21T04:25:37;19.10;99.90
24382;DHT22;12502;50.678;7.172;2022-07-21T04:30:40;19.10;99.90
24382;DHT22;12502;50.678;7.172;2022-07-21T04:35:42;19.00;99.90
24382;DHT22;12502;50.678;7.172;2022-07-21T04:40:43;19.00;99.90
24382;DHT22;12502;50.678;7.172;2022-07-21T04:45:45;19.00;99.90
24382;DHT22;12502;50.678;7.172;2022-07-21T04:50:47;19.00;99.90
24382;DHT22;12502;50.678;7.172;2022-07-21T04:55:49;18.90;99.90
24382;DHT22;12502;50.678;7.172;2022-07-21T05:00:51;18.90;99.90
24382;DHT22;12502;50.678;7.172;2022-07-21T05:05:53;18.90;99.90
24382;DHT22;12502;50.678;7.172;2022-07-21T05:10:54;18.90;99.90
24382;DHT22;12502;50.678;7.172;2022-07-21T05:15:56;18.90;99.90
24382;DHT22;12502;50.678;7.172;2022-07-21T05:20:58;19.00;99.90
24382;DHT22;12502;50.678;7.172;2022-07-21T05:26:00;19.10;99.90
24382;DHT22;12502;50.678;7.172;2022-07-21T05:31:03;19.20;99.90
24382;DHT22;12502;50.678;7.172;2022-07-21T05:36:06;19.20;99.90
24382;DHT22;12502;50.678;7.172;2022-07-21T05:41:07;19.20;99.90
24382;DHT22;12502;50.678;7.172;2022-07-21T05:46:09;19.10;99.90
24382;DHT22;12502;50.678;7.172;2022-07-21T05:51:11;19.20;99.90
24382;DHT22;12502;50.678;7.172;2022-07-21T05:56:19;19.20;99.90
24382;DHT22;12502;50.678;7.172;2022-07-21T06:01:20;19.20;99.90
24382;DHT22;12502;50.678;7.172;2022-07-21T06:06:22;19.20;99.90
24382;DHT22;12502;50.678;7.172;2022-07-21T06:11:24;19.20;99.90
24382;DHT22;12502;50.678;7.172;2022-07-21T06:16:26;19.20;99.90
24382;DHT22;12502;50.678;7.172;2022-07-21T06:21:28;19.20;99.90
24382;DHT22;12502;50.678;7.172;2022-07-21T06:26:35;19.20;99.90
24382;DHT22;12502;50.678;7.172;2022-07-21T06:31:37;19.20;99.90
24382;DHT22;12502;50.678;7.172;2022-07-21T06:36:39;19.20;99.90
24382;DHT22;12502;50.678;7.172;2022-07-21T06:41:40;19.10;99.90
24382;DHT22;12502;50.678;7.172;2022-07-21T06:46:48;19.10;99.90
24382;DHT22;12502;50.678;7.172;2022-07-21T06:51:50;19.00;99.90
24382;DHT22;12502;50.678;7.172;2022-07-21T06:56:52;18.90;99.90
24382;DHT22;12502;50.678;7.172;2022-07-21T07:01:54;18.90;99.90
24382;DHT22;12502;50.678;7.172;2022-07-21T07:06:57;19.00;99.90
24382;DHT22;12502;50.678;7.172;2022-07-21T07:11:58;19.10;99.90
24382;DHT22;12502;50.678;7.172;2022-07-21T07:17:24;19.30;99.90
24382;DHT22;12502;50.678;7.172;2022-07-21T07:22:26;19.40;99.90
24382;DHT22;12502;50.678;7.172;2022-07-21T07:27:28;19.40;99.90
24382;DHT22;12502;50.678;7.172;2022-07-21T07:32:35;19.50;99.90
24382;DHT22;12502;50.678;7.172;2022-07-21T07:37:37;19.70;99.90
24382;DHT22;12502;50.678;7.172;2022-07-21T07:42:39;19.80;99.90
24382;DHT22;12502;50.678;7.172;2022-07-21T07:47:42;19.90;99.90
24382;DHT22;12502;50.678;7.172;2022-07-21T07:52:45;20.10;99.90
24382;DHT22;12502;50.678;7.172;2022-07-21T07:57:47;20.20;99.90
24382;DHT22;12502;50.678;7.172;2022-07-21T08:02:48;20.40;99.90
24382;DHT22;12502;50.678;7.172;2022-07-21T08:07:51;20.40;99.90
24382;DHT22;12502;50.678;7.172;2022-07-21T08:12:52;20.50;99.90
24382;DHT22;12502;50.678;7.172;2022-07-21T08:17:54;20.60;99.90
24382;DHT22;12502;50.678;7.172;2022-07-21T08:22:56;20.50;99.90
24382;DHT22;12502;50.678;7.172;2022-07-21T08:27:58;20.70;99.90
24382;DHT22;12502;50.678;7.172;2022-07-21T08:33:00;20.80;99.90
24382;DHT22;12502;50.678;7.172;2022-07-21T08:38:04;20.90;99.90
24382;DHT22;12502;50.678;7.172;2022-07-21T08:43:07;20.90;99.90
24382;DHT22;12502;50.678;7.172;2022-07-21T08:48:10;21.00;99.90
24382;DHT22;12502;50.678;7.172;2022-07-21T08:53:12;21.20;99.90
24382;DHT22;12502;50.678;7.172;2022-07-21T08:58:14;21.10;99.90
24382;DHT22;12502;50.678;7.172;2022-07-21T09:03:26;21.00;99.90
24382;DHT22;12502;50.678;7.172;2022-07-21T09:08:40;21.00;99.90
24382;DHT22;12502;50.678;7.172;2022-07-21T09:13:43;21.00;99.90
24382;DHT22;12502;50.678;7.172;2022-07-21T09:18:50;20.90;99.90
24382;DHT22;12502;50.678;7.172;2022-07-21T09:24:11;21.00;99.90
24382;DHT22;12502;50.678;7.172;2022-07-21T09:29:13;21.10;99.90
24382;DHT22;12502;50.678;7.172;2022-07-21T09:34:15;21.10;99.90
24382;DHT22;12502;50.678;7.172;2022-07-21T09:39:18;21.10;99.90
24382;DHT22;12502;50.678;7.172;2022-07-21T09:44:33;21.30;99.90
24382;DHT22;12502;50.678;7.172;2022-07-21T09:49:37;21.40;99.90
24382;DHT22;12502;50.678;7.172;2022-07-21T09:55:02;21.50;99.90
24382;DHT22;12502;50.678;7.172;2022-07-21T10:00:10;21.70;99.90
24382;DHT22;12502;50.678;7.172;2022-07-21T10:05:20;21.80;99.90
24382;DHT22;12502;50.678;7.172;2022-07-21T10:10:31;21.80;99.90
24382;DHT22;12502;50.678;7.172;2022-07-21T10:15:53;21.90;99.90
24382;DHT22;12502;50.678;7.172;2022-07-21T10:21:03;22.10;99.90
24382;DHT22;12502;50.678;7.172;2022-07-21T10:26:06;22.50;99.90
24382;DHT22;12502;50.678;7.172;2022-07-21T10:31:22;22.70;99.90
24382;DHT22;12502;50.678;7.172;2022-07-21T10:41:39;22.70;99.90
24382;DHT22;12502;50.678;7.172;2022-07-21T10:46:41;22.70;99.90
24382;DHT22;12502;50.678;7.172;2022-07-21T10:51:43;22.80;99.90
24382;DHT22;12502;50.678;7.172;2022-07-21T10:57:16;22.80;99.90
24382;DHT22;12502;50.678;7.172;2022-07-21T11:02:28;22.80;99.90
24382;DHT22;12502;50.678;7.172;2022-07-21T11:13:06;23.00;99.90
24382;DHT22;12502;50.678;7.172;2022-07-21T11:18:17;23.10;99.90
24382;DHT22;12502;50.678;7.172;2022-07-21T11:23:19;23.30;99.90
24382;DHT22;12502;50.678;7.172;2022-07-21T11:28:21;23.20;99.90
24382;DHT22;12502;50.678;7.172;2022-07-21T11:33:23;23.20;99.90
24382;DHT22;12502;50.678;7.172;2022-07-21T11:38:25;23.20;99.90
24382;DHT22;12502;50.678;7.172;2022-07-21T11:43:40;23.20;99.90
24382;DHT22;12502;50.678;7.172;2022-07-21T11:48:42;23.10;99.90
24382;DHT22;12502;50.678;7.172;2022-07-21T11:53:44;23.10;99.90
24382;DHT22;12502;50.678;7.172;2022-07-21T11:58:48;23.10;99.90
24382;DHT22;12502;50.678;7.172;2022-07-21T12:03:54;23.00;99.90
24382;DHT22;12502;50.678;7.172;2022-07-21T12:08:57;22.90;99.90
24382;DHT22;12502;50.678;7.172;2022-07-21T12:14:01;22.80;99.90
24382;DHT22;12502;50.678;7.172;2022-07-21T12:19:21;22.70;99.90
24382;DHT22;12502;50.678;7.172;2022-07-21T12:24:54;22.60;99.90
24382;DHT22;12502;50.678;7.172;2022-07-21T12:29:56;22.40;99.90
24382;DHT22;12502;50.678;7.172;2022-07-21T12:34:58;22.20;99.90
24382;DHT22;12502;50.678;7.172;2022-07-21T12:40:20;22.10;99.90
24382;DHT22;12502;50.678;7.172;2022-07-21T12:45:22;22.00;99.90
24382;DHT22;12502;50.678;7.172;2022-07-21T12:50:24;21.90;99.90
24382;DHT22;12502;50.678;7.172;2022-07-21T12:55:26;21.80;99.90
24382;DHT22;12502;50.678;7.172;2022-07-21T13:00:28;21.70;99.90
24382;DHT22;12502;50.678;7.172;2022-07-21T13:05:29;21.70;99.90
24382;DHT22;12502;50.678;7.172;2022-07-21T13:10:31;21.70;99.90
24382;DHT22;12502;50.678;7.172;2022-07-21T13:15:33;21.60;99.90
24382;DHT22;12502;50.678;7.172;2022-07-21T13:20:35;21.50;99.90
24382;DHT22;12502;50.678;7.172;2022-07-21T13:25:36;21.40;99.90
24382;DHT22;12502;50.678;7.172;2022-07-21T13:30:38;21.40;99.90
24382;DHT22;12502;50.678;7.172;2022-07-21T13:35:43;21.40;99.90
24382;DHT22;12502;50.678;7.172;2022-07-21T13:40:45;21.30;99.90
24382;DHT22;12502;50.678;7.172;2022-07-21T13:46:08;21.30;99.90
24382;DHT22;12502;50.678;7.172;2022-07-21T13:51:10;21.30;99.90
24382;DHT22;12502;50.678;7.172;2022-07-21T13:56:13;21.30;99.90
24382;DHT22;12502;50.678;7.172;2022-07-21T14:01:15;21.20;99.90
24382;DHT22;12502;50.678;7.172;2022-07-21T14:06:17;21.10;99.90
24382;DHT22;12502;50.678;7.172;2022-07-21T14:11:19;21.10;99.90
24382;DHT22;12502;50.678;7.172;2022-07-21T14:16:24;20.90;99.90
24382;DHT22;12502;50.678;7.172;2022-07-21T14:21:26;20.90;99.90
24382;DHT22;12502;50.678;7.172;2022-07-21T14:26:28;20.90;99.90
24382;DHT22;12502;50.678;7.172;2022-07-21T14:31:29;20.90;99.90
24382;DHT22;12502;50.678;7.172;2022-07-21T14:36:31;20.80;99.90
24382;DHT22;12502;50.678;7.172;2022-07-21T14:41:33;20.80;99.90
24382;DHT22;12502;50.678;7.172;2022-07-21T14:46:36;20.80;99.90
24382;DHT22;12502;50.678;7.172;2022-07-21T14:51:38;20.70;99.90
24382;DHT22;12502;50.678;7.172;2022-07-21T14:56:39;20.70;99.90
24382;DHT22;12502;50.678;7.172;2022-07-21T15:02:01;20.70;99.90
24382;DHT22;12502;50.678;7.172;2022-07-21T15:07:12;20.70;99.90
24382;DHT22;12502;50.678;7.172;2022-07-21T15:12:14;20.50;99.90
24382;DHT22;12502;50.678;7.172;2022-07-21T15:17:15;20.20;99.90
24382;DHT22;12502;50.678;7.172;2022-07-21T15:22:19;20.20;99.90
24382;DHT22;12502;50.678;7.172;2022-07-21T15:27:20;20.00;99.90
24382;DHT22;12502;50.678;7.172;2022-07-21T15:32:22;19.90;99.90
24382;DHT22;12502;50.678;7.172;2022-07-21T15:37:24;19.90;99.90
24382;DHT22;12502;50.678;7.172;2022-07-21T15:42:26;19.70;99.90
24382;DHT22;12502;50.678;7.172;2022-07-21T15:47:29;19.70;99.90
24382;DHT22;12502;50.678;7.172;2022-07-21T15:52:31;19.60;99.90
24382;DHT22;12502;50.678;7.172;2022-07-21T15:57:34;19.50;99.90
24382;DHT22;12502;50.678;7.172;2022-07-21T16:02:41;19.50;99.90
24382;DHT22;12502;50.678;7.172;2022-07-21T16:07:44;19.50;99.90
24382;DHT22;12502;50.678;7.172;2022-07-21T16:12:47;19.60;99.90
24382;DHT22;12502;50.678;7.172;2022-07-21T16:17:50;19.60;99.90
24382;DHT22;12502;50.678;7.172;2022-07-21T16:22:53;19.60;99.90
24382;DHT22;12502;50.678;7.172;2022-07-21T16:27:57;19.70;99.90
24382;DHT22;12502;50.678;7.172;2022-07-21T16:32:59;19.70;99.90
24382;DHT22;12502;50.678;7.172;2022-07-21T16:38:00;19.70;99.90
24382;DHT22;12502;50.678;7.172;2022-07-21T16:43:02;19.80;99.90
24382;DHT22;12502;50.678;7.172;2022-07-21T16:48:04;19.80;99.90
24382;DHT22;12502;50.678;7.172;2022-07-21T16:53:12;19.80;99.90
24382;DHT22;12502;50.678;7.172;2022-07-21T16:58:14;19.80;99.90
24382;DHT22;12502;50.678;7.172;2022-07-21T17:03:16;19.80;99.90
24382;DHT22;12502;50.678;7.172;2022-07-21T17:08:18;19.80;99.90
24382;DHT22;12502;50.678;7.172;2022-07-21T17:13:19;19.80;99.90
24382;DHT22;12502;50.678;7.172;2022-07-21T17:18:21;19.70;99.90
24382;DHT22;12502;50.678;7.172;2022-07-21T17:23:23;19.70;99.90
24382;DHT22;12502;50.678;7.172;2022-07-21T17:28:25;19.70;99.90
24382;DHT22;12502;50.678;7.172;2022-07-21T17:33:27;19.70;99.90
24382;DHT22;12502;50.678;7.172;2022-07-21T17:38:29;19.70;99.90
24382;DHT22;12502;50.678;7.172;2022-07-21T17:43:31;19.70;99.90
24382;DHT22;12502;50.678;7.172;2022-07-21T17:48:32;19.70;99.90
24382;DHT22;12502;50.678;7.172;2022-07-21T17:53:34;19.70;99.90
24382;DHT22;12502;50.678;7.172;2022-07-21T17:58:44;19.70;99.90
24382;DHT22;12502;50.678;7.172;2022-07-21T18:03:50;19.70;99.90
24382;DHT22;12502;50.678;7.172;2022-07-21T18:08:53;19.70;99.90
24382;DHT22;12502;50.678;7.172;2022-07-21T18:13:55;19.80;99.90
24382;DHT22;12502;50.678;7.172;2022-07-21T18:18:57;19.70;99.90
24382;DHT22;12502;50.678;7.172;2022-07-21T18:23:59;19.70;99.90
24382;DHT22;12502;50.678;7.172;2022-07-21T18:29:01;19.70;99.90
24382;DHT22;12502;50.678;7.172;2022-07-21T18:34:03;19.70;99.90
24382;DHT22;12502;50.678;7.172;2022-07-21T18:39:05;19.70;99.90
24382;DHT22;12502;50.678;7.172;2022-07-21T18:44:07;19.70;99.90
24382;DHT22;12502;50.678;7.172;2022-07-21T18:49:09;19.60;99.90
24382;DHT22;12502;50.678;7.172;2022-07-21T18:54:11;19.60;99.90
24382;DHT22;12502;50.678;7.172;2022-07-21T18:59:14;19.60;99.90
24382;DHT22;12502;50.678;7.172;2022-07-21T19:04:16;19.50;99.90
24382;DHT22;12502;50.678;7.172;2022-07-21T19:09:17;19.50;99.90
24382;DHT22;12502;50.678;7.172;2022-07-21T19:14:19;19.50;99.90
24382;DHT22;12502;50.678;7.172;2022-07-21T19:19:21;19.40;99.90
24382;DHT22;12502;50.678;7.172;2022-07-21T19:24:23;19.40;99.90
24382;DHT22;12502;50.678;7.172;2022-07-21T19:29:24;19.30;99.90
24382;DHT22;12502;50.678;7.172;2022-07-21T19:34:26;19.30;99.90
24382;DHT22;12502;50.678;7.172;2022-07-21T19:39:32;19.30;99.90
24382;DHT22;12502;50.678;7.172;2022-07-21T19:44:34;19.30;99.90
24382;DHT22;12502;50.678;7.172;2022-07-21T19:49:36;19.20;99.90
24382;DHT22;12502;50.678;7.172;2022-07-21T19:54:40;19.30;99.90
24382;DHT22;12502;50.678;7.172;2022-07-21T19:59:41;19.30;99.90
24382;DHT22;12502;50.678;7.172;2022-07-21T20:04:43;19.30;99.90
24382;DHT22;12502;50.678;7.172;2022-07-21T20:09:45;19.20;99.90
24382;DHT22;12502;50.678;7.172;2022-07-21T20:14:47;19.20;99.90
24382;DHT22;12502;50.678;7.172;2022-07-21T20:19:49;19.20;99.90
24382;DHT22;12502;50.678;7.172;2022-07-21T20:24:51;19.10;99.90
24382;DHT22;12502;50.678;7.172;2022-07-21T20:29:57;19.10;99.90
24382;DHT22;12502;50.678;7.172;2022-07-21T20:34:58;19.10;99.90
24382;DHT22;12502;50.678;7.172;2022-07-21T20:40:00;19.10;99.90
24382;DHT22;12502;50.678;7.172;2022-07-21T20:45:23;19.20;99.90
24382;DHT22;12502;50.678;7.172;2022-07-21T20:50:25;19.10;99.90
24382;DHT22;12502;50.678;7.172;2022-07-21T20:55:27;19.10;99.90
24382;DHT22;12502;50.678;7.172;2022-07-21T21:00:47;19.10;99.90
24382;DHT22;12502;50.678;7.172;2022-07-21T21:05:49;19.10;99.90
24382;DHT22;12502;50.678;7.172;2022-07-21T21:10:51;19.00;99.90
24382;DHT22;12502;50.678;7.172;2022-07-21T21:15:53;19.10;99.90
24382;DHT22;12502;50.678;7.172;2022-07-21T21:20:55;19.10;99.90
24382;DHT22;12502;50.678;7.172;2022-07-21T21:25:58;19.10;99.90
24382;DHT22;12502;50.678;7.172;2022-07-21T21:31:01;19.10;99.90
24382;DHT22;12502;50.678;7.172;2022-07-21T21:36:03;19.10;99.90
24382;DHT22;12502;50.678;7.172;2022-07-21T21:41:04;19.00;99.90
24382;DHT22;12502;50.678;7.172;2022-07-21T21:46:07;19.00;99.90
24382;DHT22;12502;50.678;7.172;2022-07-21T21:51:10;19.00;99.90
24382;DHT22;12502;50.678;7.172;2022-07-21T21:56:12;19.00;99.90
24382;DHT22;12502;50.678;7.172;2022-07-21T22:01:14;18.90;99.90
24382;DHT22;12502;50.678;7.172;2022-07-21T22:06:16;18.90;99.90
24382;DHT22;12502;50.678;7.172;2022-07-21T22:11:17;18.90;99.90
24382;DHT22;12502;50.678;7.172;2022-07-21T22:16:19;18.80;99.90
24382;DHT22;12502;50.678;7.172;2022-07-21T22:21:21;18.80;99.90
24382;DHT22;12502;50.678;7.172;2022-07-21T22:26:30;18.70;99.90
24382;DHT22;12502;50.678;7.172;2022-07-21T22:31:32;18.60;99.90
24382;DHT22;12502;50.678;7.172;2022-07-21T22:36:39;18.60;99.90
24382;DHT22;12502;50.678;7.172;2022-07-21T22:41:41;18.60;99.90
24382;DHT22;12502;50.678;7.172;2022-07-21T22:46:43;18.50;99.90
24382;DHT22;12502;50.678;7.172;2022-07-21T22:51:45;18.50;99.90
24382;DHT22;12502;50.678;7.172;2022-07-21T22:56:47;18.50;99.90
24382;DHT22;12502;50.678;7.172;2022-07-21T23:01:49;18.50;99.90
24382;DHT22;12502;50.678;7.172;2022-07-21T23:06:51;18.50;99.90
24382;DHT22;12502;50.678;7.172;2022-07-21T23:11:52;18.40;99.90
24382;DHT22;12502;50.678;7.172;2022-07-21T23:16:54;18.40;99.90
24382;DHT22;12502;50.678;7.172;2022-07-21T23:21:56;18.40;99.90
24382;DHT22;12502;50.678;7.172;2022-07-21T23:26:58;18.40;99.90
24382;DHT22;12502;50.678;7.172;2022-07-21T23:31:59;18.40;99.90
24382;DHT22;12502;50.678;7.172;2022-07-21T23:37:01;18.40;99.90
24382;DHT22;12502;50.678;7.172;2022-07-21T23:42:03;18.30;99.90
24382;DHT22;12502;50.678;7.172;2022-07-21T23:47:05;18.30;99.90
24382;DHT22;12502;50.678;7.172;2022-07-21T23:52:07;18.30;99.90
24382;DHT22;12502;50.678;7.172;2022-07-21T23:57:08;18.40;99.90
